Spanish Camp, Texas
Current Conditions -  °F | °C
As of 8:55 AM on Tuesday 21 Oct 2014 (Local Time) from KARM Reporting Station
Clear Clear  
Wind Chill: 65°   Ceiling: Unl
Heat Index: 65°   Visibility: 10mi
Dew Point: 60°   Wind: 5mph
Humidity: 82%   Direction: 50°NE
Pressure: 30.06"   Gusts: NA
Location:  29.2926°N, 96.034°W
Report Text: KARM 211355Z AUTO 05004KT 10SM CLR 19/15 A3006 RMK AO2 T01860154
Loading
Personal Weather Stations






























Interactive Weather Map
Tropical Storm Tracking
New forecast layout! Learn more

10-Day Weather Forecast

Advertisements
Track Severe Weather on mobile